Terminal Aerodrome Forecast
Issued by NWS

Home | Current Version | Previous Version | Text Only | Print | Product List | Glossary On
Versions: 1 2 3 4 5 6 7 8 9 10 11 12
000
FTAK31 PAFA 232347
TAFAQT
TAF
PAQT 232347Z 2400/2424 20012KT P6SM -SHRA OVC045
     FM240300 25008KT P6SM -SHRA OVC025
     FM241200 23012KT P6SM BKN100=

USA.gov is the U.S. government's official web portal to all federal, state and local government web resources and services.